Archival Weather

Al Kharj

Al Kharj, Saudi Arabia (OEKJ)

Report from: Thursday, February 22, 2024 3:00 PM UTC
Current time: Wednesday, April 24, 2024 7:59 PM UTC

Current weather – Weather history – Daily summaries
Weather forecast

Temperature24.0°C (75.2°F)
Dew point1.0°C (33.8°F)
Winds 10 kts (5.1 m/s, 11.5 mph) East (100°)
Clouds Sky clear
Altimeter30.15 in.Hg (1021 mB)
Relative humidity22 %
Density altitude888 ft. (271 m)
Remarks Ceiling and visibility OK
Flight conditions Visual Meteorological Conditions
Raw dataOEKJ 221500Z 10010KT CAVOK 24/01 Q1021
An error has occurred. This application may no longer respond until reloaded. Reload 🗙